sensor_id;sensor_type;location;lat;lon;timestamp;P1;durP1;ratioP1;P2;durP2;ratioP2
55811;SDS011;41742;52.048;6.092;2023-01-01T00:01:10;31.58;;;12.93;;
55811;SDS011;41742;52.048;6.092;2023-01-01T00:03:37;21.38;;;10.32;;
55811;SDS011;41742;52.048;6.092;2023-01-01T00:06:10;22.42;;;9.43;;
55811;SDS011;41742;52.048;6.092;2023-01-01T00:08:38;15.35;;;7.25;;
55811;SDS011;41742;52.048;6.092;2023-01-01T00:11:04;16.83;;;6.15;;
55811;SDS011;41742;52.048;6.092;2023-01-01T00:13:32;15.25;;;7.00;;
55811;SDS011;41742;52.048;6.092;2023-01-01T00:18:34;15.57;;;7.40;;
55811;SDS011;41742;52.048;6.092;2023-01-01T00:21:02;25.10;;;6.63;;
55811;SDS011;41742;52.048;6.092;2023-01-01T00:23:28;12.90;;;5.65;;
55811;SDS011;41742;52.048;6.092;2023-01-01T00:25:54;8.98;;;3.65;;
55811;SDS011;41742;52.048;6.092;2023-01-01T00:28:20;7.55;;;4.05;;
55811;SDS011;41742;52.048;6.092;2023-01-01T00:30:45;18.98;;;6.47;;
55811;SDS011;41742;52.048;6.092;2023-01-01T00:33:11;12.32;;;5.43;;
55811;SDS011;41742;52.048;6.092;2023-01-01T00:35:37;9.25;;;4.30;;
55811;SDS011;41742;52.048;6.092;2023-01-01T00:38:02;7.43;;;3.25;;
55811;SDS011;41742;52.048;6.092;2023-01-01T00:40:28;11.57;;;4.90;;
55811;SDS011;41742;52.048;6.092;2023-01-01T00:42:54;10.05;;;3.08;;
55811;SDS011;41742;52.048;6.092;2023-01-01T00:45:19;7.40;;;2.80;;
55811;SDS011;41742;52.048;6.092;2023-01-01T00:47:45;13.50;;;3.30;;
55811;SDS011;41742;52.048;6.092;2023-01-01T00:50:11;7.72;;;3.17;;
55811;SDS011;41742;52.048;6.092;2023-01-01T00:52:36;7.60;;;3.20;;
55811;SDS011;41742;52.048;6.092;2023-01-01T00:55:02;8.68;;;3.47;;
55811;SDS011;41742;52.048;6.092;2023-01-01T00:57:28;17.83;;;3.92;;
55811;SDS011;41742;52.048;6.092;2023-01-01T00:59:53;16.08;;;3.75;;
55811;SDS011;41742;52.048;6.092;2023-01-01T01:02:19;8.25;;;3.50;;
55811;SDS011;41742;52.048;6.092;2023-01-01T01:04:45;25.55;;;3.33;;
55811;SDS011;41742;52.048;6.092;2023-01-01T01:07:10;10.65;;;2.88;;
55811;SDS011;41742;52.048;6.092;2023-01-01T01:09:36;7.40;;;2.05;;
55811;SDS011;41742;52.048;6.092;2023-01-01T01:12:02;4.68;;;1.98;;
55811;SDS011;41742;52.048;6.092;2023-01-01T01:14:27;8.07;;;2.80;;
55811;SDS011;41742;52.048;6.092;2023-01-01T01:16:53;8.85;;;3.03;;
55811;SDS011;41742;52.048;6.092;2023-01-01T01:19:19;7.75;;;1.98;;
55811;SDS011;41742;52.048;6.092;2023-01-01T01:21:47;3.20;;;1.80;;
55811;SDS011;41742;52.048;6.092;2023-01-01T01:24:13;5.50;;;2.30;;
55811;SDS011;41742;52.048;6.092;2023-01-01T01:26:39;5.85;;;1.70;;
55811;SDS011;41742;52.048;6.092;2023-01-01T01:29:05;10.15;;;1.95;;
55811;SDS011;41742;52.048;6.092;2023-01-01T01:31:31;5.97;;;1.88;;
55811;SDS011;41742;52.048;6.092;2023-01-01T01:33:57;6.60;;;2.00;;
55811;SDS011;41742;52.048;6.092;2023-01-01T01:36:23;4.35;;;2.00;;
55811;SDS011;41742;52.048;6.092;2023-01-01T01:38:49;10.50;;;2.50;;
55811;SDS011;41742;52.048;6.092;2023-01-01T01:41:16;13.20;;;1.35;;
55811;SDS011;41742;52.048;6.092;2023-01-01T01:43:54;5.28;;;1.70;;
55811;SDS011;41742;52.048;6.092;2023-01-01T01:46:35;4.38;;;1.70;;
55811;SDS011;41742;52.048;6.092;2023-01-01T01:49:04;5.90;;;2.35;;
55811;SDS011;41742;52.048;6.092;2023-01-01T01:51:54;4.28;;;1.50;;
55811;SDS011;41742;52.048;6.092;2023-01-01T01:54:21;7.40;;;2.35;;
55811;SDS011;41742;52.048;6.092;2023-01-01T01:56:51;7.47;;;1.83;;
55811;SDS011;41742;52.048;6.092;2023-01-01T01:59:20;3.45;;;1.15;;
55811;SDS011;41742;52.048;6.092;2023-01-01T02:01:48;1.60;;;1.27;;
55811;SDS011;41742;52.048;6.092;2023-01-01T02:04:14;3.20;;;1.52;;
55811;SDS011;41742;52.048;6.092;2023-01-01T02:06:41;6.38;;;1.45;;
55811;SDS011;41742;52.048;6.092;2023-01-01T02:09:08;4.32;;;1.45;;
55811;SDS011;41742;52.048;6.092;2023-01-01T02:11:35;5.00;;;1.50;;
55811;SDS011;41742;52.048;6.092;2023-01-01T02:14:01;2.95;;;1.40;;
55811;SDS011;41742;52.048;6.092;2023-01-01T02:16:31;7.68;;;1.67;;
55811;SDS011;41742;52.048;6.092;2023-01-01T02:22:15;4.30;;;1.42;;
55811;SDS011;41742;52.048;6.092;2023-01-01T02:24:50;6.10;;;1.63;;
55811;SDS011;41742;52.048;6.092;2023-01-01T02:27:35;4.10;;;1.60;;
55811;SDS011;41742;52.048;6.092;2023-01-01T02:30:22;8.07;;;1.63;;
55811;SDS011;41742;52.048;6.092;2023-01-01T02:32:52;7.32;;;1.33;;
55811;SDS011;41742;52.048;6.092;2023-01-01T02:35:22;3.00;;;1.60;;
55811;SDS011;41742;52.048;6.092;2023-01-01T02:38:13;3.78;;;1.33;;
55811;SDS011;41742;52.048;6.092;2023-01-01T02:41:13;5.15;;;1.83;;
55811;SDS011;41742;52.048;6.092;2023-01-01T02:43:44;6.32;;;2.15;;
55811;SDS011;41742;52.048;6.092;2023-01-01T02:46:10;3.90;;;1.65;;
55811;SDS011;41742;52.048;6.092;2023-01-01T02:48:37;1.38;;;0.80;;
55811;SDS011;41742;52.048;6.092;2023-01-01T02:51:15;8.05;;;1.40;;
55811;SDS011;41742;52.048;6.092;2023-01-01T02:53:54;12.48;;;2.47;;
55811;SDS011;41742;52.048;6.092;2023-01-01T02:56:32;7.38;;;2.05;;
55811;SDS011;41742;52.048;6.092;2023-01-01T02:59:21;2.63;;;1.20;;
55811;SDS011;41742;52.048;6.092;2023-01-01T03:13:18;2.75;;;1.40;;
55811;SDS011;41742;52.048;6.092;2023-01-01T03:15:57;5.80;;;1.75;;
55811;SDS011;41742;52.048;6.092;2023-01-01T03:21:14;2.10;;;0.88;;
55811;SDS011;41742;52.048;6.092;2023-01-01T03:23:46;5.05;;;2.05;;
55811;SDS011;41742;52.048;6.092;2023-01-01T03:26:18;5.95;;;1.30;;
55811;SDS011;41742;52.048;6.092;2023-01-01T03:28:48;1.90;;;1.08;;
55811;SDS011;41742;52.048;6.092;2023-01-01T03:31:22;5.65;;;1.45;;
55811;SDS011;41742;52.048;6.092;2023-01-01T03:33:55;6.85;;;1.45;;
55811;SDS011;41742;52.048;6.092;2023-01-01T03:36:29;12.73;;;1.40;;
55811;SDS011;41742;52.048;6.092;2023-01-01T03:39:00;1.92;;;0.98;;
55811;SDS011;41742;52.048;6.092;2023-01-01T03:41:48;1.65;;;1.00;;
55811;SDS011;41742;52.048;6.092;2023-01-01T03:46:51;7.55;;;1.60;;
55811;SDS011;41742;52.048;6.092;2023-01-01T03:49:17;7.25;;;1.30;;
55811;SDS011;41742;52.048;6.092;2023-01-01T03:54:28;4.65;;;1.38;;
55811;SDS011;41742;52.048;6.092;2023-01-01T04:00:08;5.88;;;1.50;;
55811;SDS011;41742;52.048;6.092;2023-01-01T04:05:21;5.50;;;1.77;;
55811;SDS011;41742;52.048;6.092;2023-01-01T04:07:48;5.22;;;1.40;;
55811;SDS011;41742;52.048;6.092;2023-01-01T04:10:15;10.80;;;1.52;;
55811;SDS011;41742;52.048;6.092;2023-01-01T04:12:48;1.98;;;0.80;;
55811;SDS011;41742;52.048;6.092;2023-01-01T04:15:20;6.18;;;1.23;;
55811;SDS011;41742;52.048;6.092;2023-01-01T04:17:48;7.65;;;1.70;;
55811;SDS011;41742;52.048;6.092;2023-01-01T04:20:15;1.33;;;0.98;;
55811;SDS011;41742;52.048;6.092;2023-01-01T04:22:40;3.75;;;1.30;;
55811;SDS011;41742;52.048;6.092;2023-01-01T04:25:06;6.55;;;1.65;;
55811;SDS011;41742;52.048;6.092;2023-01-01T04:27:32;8.65;;;1.20;;
55811;SDS011;41742;52.048;6.092;2023-01-01T04:29:58;8.00;;;1.20;;
55811;SDS011;41742;52.048;6.092;2023-01-01T04:32:24;4.60;;;1.90;;
55811;SDS011;41742;52.048;6.092;2023-01-01T04:34:49;1.20;;;0.80;;
55811;SDS011;41742;52.048;6.092;2023-01-01T04:37:15;8.10;;;1.45;;
55811;SDS011;41742;52.048;6.092;2023-01-01T04:39:41;6.35;;;1.00;;
55811;SDS011;41742;52.048;6.092;2023-01-01T04:42:07;4.90;;;1.20;;
55811;SDS011;41742;52.048;6.092;2023-01-01T04:44:33;7.00;;;1.92;;
55811;SDS011;41742;52.048;6.092;2023-01-01T04:46:59;6.50;;;1.50;;
55811;SDS011;41742;52.048;6.092;2023-01-01T04:49:24;7.70;;;1.00;;
55811;SDS011;41742;52.048;6.092;2023-01-01T04:51:50;4.07;;;0.85;;
55811;SDS011;41742;52.048;6.092;2023-01-01T04:54:15;3.70;;;0.85;;
55811;SDS011;41742;52.048;6.092;2023-01-01T04:56:41;3.42;;;1.27;;
55811;SDS011;41742;52.048;6.092;2023-01-01T04:59:07;6.15;;;1.05;;
55811;SDS011;41742;52.048;6.092;2023-01-01T05:01:32;6.30;;;1.25;;
55811;SDS011;41742;52.048;6.092;2023-01-01T05:03:58;10.20;;;1.45;;
55811;SDS011;41742;52.048;6.092;2023-01-01T05:06:24;4.03;;;0.90;;
55811;SDS011;41742;52.048;6.092;2023-01-01T05:08:51;2.40;;;0.77;;
55811;SDS011;41742;52.048;6.092;2023-01-01T05:11:21;4.85;;;1.02;;
55811;SDS011;41742;52.048;6.092;2023-01-01T05:13:54;6.40;;;1.83;;
55811;SDS011;41742;52.048;6.092;2023-01-01T05:16:23;8.48;;;1.25;;
55811;SDS011;41742;52.048;6.092;2023-01-01T05:18:50;5.22;;;1.38;;
55811;SDS011;41742;52.048;6.092;2023-01-01T05:21:17;2.63;;;1.15;;
55811;SDS011;41742;52.048;6.092;2023-01-01T05:23:44;6.78;;;1.38;;
55811;SDS011;41742;52.048;6.092;2023-01-01T05:26:11;3.95;;;0.95;;
55811;SDS011;41742;52.048;6.092;2023-01-01T05:28:43;5.65;;;1.10;;
55811;SDS011;41742;52.048;6.092;2023-01-01T05:31:11;3.58;;;1.20;;
55811;SDS011;41742;52.048;6.092;2023-01-01T05:33:41;6.60;;;1.05;;
55811;SDS011;41742;52.048;6.092;2023-01-01T05:36:07;6.50;;;1.73;;
55811;SDS011;41742;52.048;6.092;2023-01-01T05:38:38;8.45;;;1.67;;
55811;SDS011;41742;52.048;6.092;2023-01-01T05:41:04;4.22;;;1.33;;
55811;SDS011;41742;52.048;6.092;2023-01-01T05:43:34;5.20;;;1.13;;
55811;SDS011;41742;52.048;6.092;2023-01-01T05:46:01;8.07;;;1.45;;
55811;SDS011;41742;52.048;6.092;2023-01-01T05:48:29;9.38;;;1.15;;
55811;SDS011;41742;52.048;6.092;2023-01-01T05:51:10;1.58;;;0.73;;
55811;SDS011;41742;52.048;6.092;2023-01-01T05:53:38;10.07;;;1.65;;
55811;SDS011;41742;52.048;6.092;2023-01-01T05:56:04;6.75;;;1.20;;
55811;SDS011;41742;52.048;6.092;2023-01-01T05:58:31;1.23;;;0.65;;
55811;SDS011;41742;52.048;6.092;2023-01-01T06:01:08;4.93;;;1.15;;
55811;SDS011;41742;52.048;6.092;2023-01-01T06:03:38;5.93;;;1.65;;
55811;SDS011;41742;52.048;6.092;2023-01-01T06:06:05;2.58;;;1.33;;
55811;SDS011;41742;52.048;6.092;2023-01-01T06:08:32;5.35;;;1.20;;
55811;SDS011;41742;52.048;6.092;2023-01-01T06:11:02;5.97;;;1.08;;
55811;SDS011;41742;52.048;6.092;2023-01-01T06:13:29;4.80;;;1.35;;
55811;SDS011;41742;52.048;6.092;2023-01-01T06:15:56;5.75;;;0.80;;
55811;SDS011;41742;52.048;6.092;2023-01-01T06:18:23;8.02;;;1.15;;
55811;SDS011;41742;52.048;6.092;2023-01-01T06:20:51;3.35;;;0.90;;
55811;SDS011;41742;52.048;6.092;2023-01-01T06:23:17;4.65;;;0.77;;
55811;SDS011;41742;52.048;6.092;2023-01-01T06:25:43;4.40;;;1.08;;
55811;SDS011;41742;52.048;6.092;2023-01-01T06:28:09;1.85;;;0.82;;
55811;SDS011;41742;52.048;6.092;2023-01-01T06:30:35;1.52;;;1.10;;
55811;SDS011;41742;52.048;6.092;2023-01-01T06:33:01;3.90;;;0.68;;
55811;SDS011;41742;52.048;6.092;2023-01-01T06:35:27;3.95;;;0.80;;
55811;SDS011;41742;52.048;6.092;2023-01-01T06:37:53;2.38;;;0.80;;
55811;SDS011;41742;52.048;6.092;2023-01-01T06:40:19;0.95;;;0.40;;
55811;SDS011;41742;52.048;6.092;2023-01-01T06:42:44;3.85;;;0.70;;
55811;SDS011;41742;52.048;6.092;2023-01-01T06:45:10;2.33;;;1.02;;
55811;SDS011;41742;52.048;6.092;2023-01-01T06:47:37;4.47;;;0.82;;
55811;SDS011;41742;52.048;6.092;2023-01-01T06:50:04;10.68;;;1.08;;
55811;SDS011;41742;52.048;6.092;2023-01-01T06:52:30;2.17;;;0.73;;
55811;SDS011;41742;52.048;6.092;2023-01-01T06:54:56;8.63;;;0.98;;
55811;SDS011;41742;52.048;6.092;2023-01-01T06:57:22;1.85;;;0.93;;
55811;SDS011;41742;52.048;6.092;2023-01-01T06:59:48;4.90;;;1.15;;
55811;SDS011;41742;52.048;6.092;2023-01-01T07:02:14;3.10;;;0.70;;
55811;SDS011;41742;52.048;6.092;2023-01-01T07:04:39;3.03;;;0.63;;
55811;SDS011;41742;52.048;6.092;2023-01-01T07:07:05;6.57;;;1.42;;
55811;SDS011;41742;52.048;6.092;2023-01-01T07:09:31;2.05;;;0.80;;
55811;SDS011;41742;52.048;6.092;2023-01-01T07:11:56;3.03;;;0.68;;
55811;SDS011;41742;52.048;6.092;2023-01-01T07:14:22;3.05;;;0.77;;
55811;SDS011;41742;52.048;6.092;2023-01-01T07:16:47;3.60;;;1.10;;
55811;SDS011;41742;52.048;6.092;2023-01-01T07:19:13;3.10;;;0.80;;
55811;SDS011;41742;52.048;6.092;2023-01-01T07:21:43;1.63;;;0.63;;
55811;SDS011;41742;52.048;6.092;2023-01-01T07:24:18;3.50;;;0.68;;
55811;SDS011;41742;52.048;6.092;2023-01-01T07:26:45;0.82;;;0.60;;
55811;SDS011;41742;52.048;6.092;2023-01-01T07:29:11;5.78;;;0.50;;
55811;SDS011;41742;52.048;6.092;2023-01-01T07:31:38;2.72;;;0.60;;
55811;SDS011;41742;52.048;6.092;2023-01-01T07:34:06;2.97;;;0.60;;
55811;SDS011;41742;52.048;6.092;2023-01-01T07:36:35;3.20;;;0.70;;
55811;SDS011;41742;52.048;6.092;2023-01-01T07:39:01;2.85;;;0.50;;
55811;SDS011;41742;52.048;6.092;2023-01-01T07:41:27;1.58;;;0.50;;
55811;SDS011;41742;52.048;6.092;2023-01-01T07:43:52;4.20;;;0.73;;
55811;SDS011;41742;52.048;6.092;2023-01-01T07:46:18;2.45;;;0.50;;
55811;SDS011;41742;52.048;6.092;2023-01-01T07:48:44;9.50;;;1.02;;
55811;SDS011;41742;52.048;6.092;2023-01-01T07:51:09;3.95;;;0.50;;
55811;SDS011;41742;52.048;6.092;2023-01-01T07:53:35;2.63;;;0.65;;
55811;SDS011;41742;52.048;6.092;2023-01-01T07:56:01;3.78;;;1.02;;
55811;SDS011;41742;52.048;6.092;2023-01-01T07:58:26;1.20;;;0.63;;
55811;SDS011;41742;52.048;6.092;2023-01-01T08:00:52;1.77;;;0.50;;
55811;SDS011;41742;52.048;6.092;2023-01-01T08:03:17;1.23;;;0.50;;
55811;SDS011;41742;52.048;6.092;2023-01-01T08:05:43;4.18;;;0.50;;
55811;SDS011;41742;52.048;6.092;2023-01-01T08:08:09;2.72;;;0.95;;
55811;SDS011;41742;52.048;6.092;2023-01-01T08:10:35;3.13;;;0.68;;
55811;SDS011;41742;52.048;6.092;2023-01-01T08:13:02;0.75;;;0.40;;
55811;SDS011;41742;52.048;6.092;2023-01-01T08:15:29;3.97;;;0.70;;
55811;SDS011;41742;52.048;6.092;2023-01-01T08:17:56;3.10;;;0.70;;
55811;SDS011;41742;52.048;6.092;2023-01-01T08:20:22;1.02;;;0.50;;
55811;SDS011;41742;52.048;6.092;2023-01-01T08:22:48;1.25;;;0.22;;
55811;SDS011;41742;52.048;6.092;2023-01-01T08:25:13;1.75;;;0.43;;
55811;SDS011;41742;52.048;6.092;2023-01-01T08:27:39;6.95;;;1.52;;
55811;SDS011;41742;52.048;6.092;2023-01-01T08:30:05;3.95;;;0.55;;
55811;SDS011;41742;52.048;6.092;2023-01-01T08:32:31;4.53;;;0.60;;
55811;SDS011;41742;52.048;6.092;2023-01-01T08:34:56;2.60;;;0.63;;
55811;SDS011;41742;52.048;6.092;2023-01-01T08:37:22;1.02;;;0.65;;
55811;SDS011;41742;52.048;6.092;2023-01-01T08:39:49;6.30;;;0.82;;
55811;SDS011;41742;52.048;6.092;2023-01-01T08:42:15;2.38;;;0.75;;
55811;SDS011;41742;52.048;6.092;2023-01-01T08:44:40;3.45;;;0.73;;
55811;SDS011;41742;52.048;6.092;2023-01-01T08:47:14;2.70;;;0.82;;
55811;SDS011;41742;52.048;6.092;2023-01-01T08:49:41;1.35;;;0.60;;
55811;SDS011;41742;52.048;6.092;2023-01-01T08:52:06;6.05;;;0.55;;
55811;SDS011;41742;52.048;6.092;2023-01-01T08:54:32;2.05;;;0.90;;
55811;SDS011;41742;52.048;6.092;2023-01-01T08:56:57;2.28;;;0.52;;
55811;SDS011;41742;52.048;6.092;2023-01-01T08:59:23;4.15;;;0.43;;
55811;SDS011;41742;52.048;6.092;2023-01-01T09:01:49;2.22;;;0.55;;
55811;SDS011;41742;52.048;6.092;2023-01-01T09:04:14;5.32;;;0.70;;
55811;SDS011;41742;52.048;6.092;2023-01-01T09:06:41;3.97;;;0.65;;
55811;SDS011;41742;52.048;6.092;2023-01-01T09:09:07;6.82;;;0.77;;
55811;SDS011;41742;52.048;6.092;2023-01-01T09:11:33;3.90;;;0.90;;
55811;SDS011;41742;52.048;6.092;2023-01-01T09:14:00;6.45;;;0.70;;
55811;SDS011;41742;52.048;6.092;2023-01-01T09:16:26;5.20;;;1.25;;
55811;SDS011;41742;52.048;6.092;2023-01-01T09:18:51;2.75;;;0.70;;
55811;SDS011;41742;52.048;6.092;2023-01-01T09:21:17;8.15;;;1.27;;
55811;SDS011;41742;52.048;6.092;2023-01-01T09:23:43;0.75;;;0.32;;
55811;SDS011;41742;52.048;6.092;2023-01-01T09:26:09;1.92;;;0.60;;
55811;SDS011;41742;52.048;6.092;2023-01-01T09:28:35;4.25;;;1.13;;
55811;SDS011;41742;52.048;6.092;2023-01-01T09:31:01;2.35;;;0.60;;
55811;SDS011;41742;52.048;6.092;2023-01-01T09:33:30;4.65;;;1.00;;
55811;SDS011;41742;52.048;6.092;2023-01-01T09:36:10;1.63;;;0.70;;
55811;SDS011;41742;52.048;6.092;2023-01-01T09:38:56;1.55;;;0.50;;
55811;SDS011;41742;52.048;6.092;2023-01-01T09:41:32;7.78;;;1.00;;
55811;SDS011;41742;52.048;6.092;2023-01-01T09:44:22;2.63;;;0.77;;
55811;SDS011;41742;52.048;6.092;2023-01-01T09:49:52;3.33;;;1.30;;
55811;SDS011;41742;52.048;6.092;2023-01-01T09:52:20;4.63;;;0.80;;
55811;SDS011;41742;52.048;6.092;2023-01-01T09:54:51;12.38;;;1.17;;
55811;SDS011;41742;52.048;6.092;2023-01-01T09:57:23;5.40;;;0.70;;
55811;SDS011;41742;52.048;6.092;2023-01-01T10:07:55;6.63;;;1.15;;
55811;SDS011;41742;52.048;6.092;2023-01-01T10:10:47;0.85;;;0.55;;
55811;SDS011;41742;52.048;6.092;2023-01-01T10:18:46;3.88;;;0.77;;
55811;SDS011;41742;52.048;6.092;2023-01-01T10:21:24;3.85;;;0.75;;
55811;SDS011;41742;52.048;6.092;2023-01-01T10:23:55;5.57;;;1.02;;
55811;SDS011;41742;52.048;6.092;2023-01-01T10:26:23;4.05;;;0.85;;
55811;SDS011;41742;52.048;6.092;2023-01-01T10:29:01;6.07;;;1.20;;
55811;SDS011;41742;52.048;6.092;2023-01-01T10:31:34;3.33;;;0.68;;
55811;SDS011;41742;52.048;6.092;2023-01-01T10:36:56;2.92;;;0.85;;
55811;SDS011;41742;52.048;6.092;2023-01-01T10:39:23;3.22;;;0.75;;
55811;SDS011;41742;52.048;6.092;2023-01-01T10:41:50;8.15;;;1.25;;
55811;SDS011;41742;52.048;6.092;2023-01-01T10:44:17;4.75;;;2.20;;
55811;SDS011;41742;52.048;6.092;2023-01-01T10:46:52;8.40;;;1.20;;
55811;SDS011;41742;52.048;6.092;2023-01-01T10:49:21;4.53;;;1.55;;
55811;SDS011;41742;52.048;6.092;2023-01-01T10:51:51;5.93;;;1.17;;
55811;SDS011;41742;52.048;6.092;2023-01-01T10:54:23;8.60;;;1.05;;
55811;SDS011;41742;52.048;6.092;2023-01-01T10:57:13;4.85;;;0.95;;
55811;SDS011;41742;52.048;6.092;2023-01-01T11:02:40;6.93;;;1.40;;
55811;SDS011;41742;52.048;6.092;2023-01-01T11:05:17;5.05;;;1.05;;
55811;SDS011;41742;52.048;6.092;2023-01-01T11:07:44;4.53;;;1.48;;
55811;SDS011;41742;52.048;6.092;2023-01-01T11:10:15;5.82;;;1.48;;
55811;SDS011;41742;52.048;6.092;2023-01-01T11:12:44;6.90;;;1.60;;
55811;SDS011;41742;52.048;6.092;2023-01-01T11:15:25;4.95;;;0.98;;
55811;SDS011;41742;52.048;6.092;2023-01-01T11:18:48;3.53;;;1.10;;
55811;SDS011;41742;52.048;6.092;2023-01-01T11:20:59;3.72;;;0.77;;
55811;SDS011;41742;52.048;6.092;2023-01-01T11:23:29;6.82;;;1.25;;
55811;SDS011;41742;52.048;6.092;2023-01-01T11:33:23;5.00;;;1.30;;
55811;SDS011;41742;52.048;6.092;2023-01-01T11:35:52;8.00;;;0.90;;
55811;SDS011;41742;52.048;6.092;2023-01-01T11:38:19;4.95;;;1.02;;
55811;SDS011;41742;52.048;6.092;2023-01-01T11:40:51;6.65;;;1.20;;
55811;SDS011;41742;52.048;6.092;2023-01-01T11:43:23;10.15;;;1.75;;
55811;SDS011;41742;52.048;6.092;2023-01-01T11:45:52;3.35;;;0.80;;
55811;SDS011;41742;52.048;6.092;2023-01-01T11:48:25;3.70;;;0.90;;
55811;SDS011;41742;52.048;6.092;2023-01-01T11:50:57;4.80;;;1.00;;
55811;SDS011;41742;52.048;6.092;2023-01-01T11:53:27;6.97;;;1.05;;
55811;SDS011;41742;52.048;6.092;2023-01-01T12:01:01;4.15;;;1.25;;
55811;SDS011;41742;52.048;6.092;2023-01-01T12:06:30;2.47;;;1.25;;
55811;SDS011;41742;52.048;6.092;2023-01-01T12:09:09;6.07;;;1.13;;
55811;SDS011;41742;52.048;6.092;2023-01-01T12:12:12;9.93;;;1.67;;
55811;SDS011;41742;52.048;6.092;2023-01-01T12:14:47;2.15;;;0.90;;
55811;SDS011;41742;52.048;6.092;2023-01-01T12:17:38;3.58;;;1.40;;
55811;SDS011;41742;52.048;6.092;2023-01-01T12:22:57;6.40;;;1.50;;
55811;SDS011;41742;52.048;6.092;2023-01-01T12:25:25;4.68;;;1.30;;
55811;SDS011;41742;52.048;6.092;2023-01-01T12:33:37;3.03;;;1.70;;
55811;SDS011;41742;52.048;6.092;2023-01-01T12:41:52;5.20;;;1.50;;
55811;SDS011;41742;52.048;6.092;2023-01-01T12:47:38;5.72;;;2.10;;
55811;SDS011;41742;52.048;6.092;2023-01-01T12:58:20;9.15;;;2.10;;
55811;SDS011;41742;52.048;6.092;2023-01-01T13:01:12;5.28;;;1.63;;
55811;SDS011;41742;52.048;6.092;2023-01-01T13:03:58;7.88;;;1.52;;
55811;SDS011;41742;52.048;6.092;2023-01-01T13:06:30;13.60;;;2.15;;
55811;SDS011;41742;52.048;6.092;2023-01-01T13:09:15;3.80;;;1.60;;
55811;SDS011;41742;52.048;6.092;2023-01-01T13:11:49;7.53;;;1.90;;
55811;SDS011;41742;52.048;6.092;2023-01-01T13:14:36;5.50;;;1.58;;
55811;SDS011;41742;52.048;6.092;2023-01-01T13:17:23;8.52;;;1.88;;
55811;SDS011;41742;52.048;6.092;2023-01-01T13:20:15;5.10;;;1.52;;
55811;SDS011;41742;52.048;6.092;2023-01-01T13:22:45;9.80;;;1.88;;
55811;SDS011;41742;52.048;6.092;2023-01-01T13:28:00;8.65;;;1.70;;
55811;SDS011;41742;52.048;6.092;2023-01-01T13:33:21;9.10;;;2.00;;
55811;SDS011;41742;52.048;6.092;2023-01-01T13:44:37;7.00;;;1.40;;
55811;SDS011;41742;52.048;6.092;2023-01-01T13:49:39;6.50;;;1.35;;
55811;SDS011;41742;52.048;6.092;2023-01-01T13:52:37;5.15;;;1.40;;
55811;SDS011;41742;52.048;6.092;2023-01-01T13:55:33;4.63;;;1.15;;
55811;SDS011;41742;52.048;6.092;2023-01-01T13:58:27;20.30;;;2.35;;
55811;SDS011;41742;52.048;6.092;2023-01-01T14:03:40;10.00;;;2.60;;
55811;SDS011;41742;52.048;6.092;2023-01-01T14:06:11;4.13;;;1.52;;
55811;SDS011;41742;52.048;6.092;2023-01-01T14:08:44;10.52;;;1.90;;
55811;SDS011;41742;52.048;6.092;2023-01-01T14:11:17;12.77;;;2.00;;
55811;SDS011;41742;52.048;6.092;2023-01-01T14:13:45;6.20;;;1.65;;
55811;SDS011;41742;52.048;6.092;2023-01-01T14:16:11;3.65;;;1.33;;
55811;SDS011;41742;52.048;6.092;2023-01-01T14:18:49;8.02;;;1.63;;
55811;SDS011;41742;52.048;6.092;2023-01-01T14:21:20;4.95;;;1.00;;
55811;SDS011;41742;52.048;6.092;2023-01-01T14:26:19;9.73;;;1.85;;
55811;SDS011;41742;52.048;6.092;2023-01-01T14:28:48;12.25;;;1.98;;
55811;SDS011;41742;52.048;6.092;2023-01-01T14:31:19;6.25;;;1.50;;
55811;SDS011;41742;52.048;6.092;2023-01-01T14:33:47;8.57;;;1.73;;
55811;SDS011;41742;52.048;6.092;2023-01-01T14:36:18;5.68;;;1.73;;
55811;SDS011;41742;52.048;6.092;2023-01-01T14:38:48;3.70;;;1.30;;
55811;SDS011;41742;52.048;6.092;2023-01-01T14:44:02;8.80;;;1.80;;
55811;SDS011;41742;52.048;6.092;2023-01-01T14:46:30;8.55;;;1.77;;
55811;SDS011;41742;52.048;6.092;2023-01-01T14:48:59;6.43;;;1.67;;
55811;SDS011;41742;52.048;6.092;2023-01-01T14:51:28;10.52;;;2.08;;
55811;SDS011;41742;52.048;6.092;2023-01-01T14:53:59;8.00;;;2.10;;
55811;SDS011;41742;52.048;6.092;2023-01-01T14:56:31;10.18;;;1.83;;
55811;SDS011;41742;52.048;6.092;2023-01-01T15:01:30;15.55;;;3.08;;
55811;SDS011;41742;52.048;6.092;2023-01-01T15:04:00;8.80;;;2.42;;
55811;SDS011;41742;52.048;6.092;2023-01-01T15:06:28;4.53;;;1.80;;
55811;SDS011;41742;52.048;6.092;2023-01-01T15:08:54;10.07;;;3.50;;
55811;SDS011;41742;52.048;6.092;2023-01-01T15:11:23;13.25;;;5.40;;
55811;SDS011;41742;52.048;6.092;2023-01-01T15:13:57;21.08;;;6.05;;
55811;SDS011;41742;52.048;6.092;2023-01-01T15:16:25;47.63;;;16.70;;
55811;SDS011;41742;52.048;6.092;2023-01-01T15:18:51;15.85;;;4.43;;
55811;SDS011;41742;52.048;6.092;2023-01-01T15:26:53;13.48;;;3.33;;
55811;SDS011;41742;52.048;6.092;2023-01-01T15:29:54;7.35;;;2.35;;
55811;SDS011;41742;52.048;6.092;2023-01-01T15:32:13;15.50;;;2.08;;
55811;SDS011;41742;52.048;6.092;2023-01-01T15:34:41;6.78;;;2.45;;
55811;SDS011;41742;52.048;6.092;2023-01-01T15:37:16;8.85;;;2.05;;
55811;SDS011;41742;52.048;6.092;2023-01-01T15:39:50;6.95;;;2.28;;
55811;SDS011;41742;52.048;6.092;2023-01-01T15:43:10;3.55;;;1.70;;
55811;SDS011;41742;52.048;6.092;2023-01-01T15:47:52;7.55;;;2.70;;
55811;SDS011;41742;52.048;6.092;2023-01-01T15:50:28;11.90;;;1.95;;
55811;SDS011;41742;52.048;6.092;2023-01-01T15:53:27;5.45;;;1.77;;
55811;SDS011;41742;52.048;6.092;2023-01-01T15:55:58;12.00;;;2.45;;
55811;SDS011;41742;52.048;6.092;2023-01-01T15:58:31;7.22;;;2.42;;
55811;SDS011;41742;52.048;6.092;2023-01-01T16:01:07;14.82;;;2.53;;
55811;SDS011;41742;52.048;6.092;2023-01-01T16:03:35;8.73;;;1.98;;
55811;SDS011;41742;52.048;6.092;2023-01-01T16:06:03;15.57;;;2.35;;
55811;SDS011;41742;52.048;6.092;2023-01-01T16:08:29;7.18;;;1.98;;
55811;SDS011;41742;52.048;6.092;2023-01-01T16:10:55;8.52;;;1.65;;
55811;SDS011;41742;52.048;6.092;2023-01-01T16:13:21;4.68;;;1.08;;
55811;SDS011;41742;52.048;6.092;2023-01-01T16:15:54;11.18;;;2.20;;
55811;SDS011;41742;52.048;6.092;2023-01-01T16:18:29;4.60;;;2.15;;
55811;SDS011;41742;52.048;6.092;2023-01-01T16:21:00;5.65;;;2.33;;
55811;SDS011;41742;52.048;6.092;2023-01-01T16:23:28;10.35;;;2.10;;
55811;SDS011;41742;52.048;6.092;2023-01-01T16:25:53;10.90;;;2.40;;
55811;SDS011;41742;52.048;6.092;2023-01-01T16:28:19;8.18;;;2.15;;
55811;SDS011;41742;52.048;6.092;2023-01-01T16:30:44;9.70;;;2.40;;
55811;SDS011;41742;52.048;6.092;2023-01-01T16:33:14;12.68;;;2.10;;
55811;SDS011;41742;52.048;6.092;2023-01-01T16:35:42;5.72;;;2.60;;
55811;SDS011;41742;52.048;6.092;2023-01-01T16:38:08;10.35;;;5.47;;
55811;SDS011;41742;52.048;6.092;2023-01-01T16:40:33;5.18;;;2.17;;
55811;SDS011;41742;52.048;6.092;2023-01-01T16:42:59;8.75;;;2.67;;
55811;SDS011;41742;52.048;6.092;2023-01-01T16:45:25;6.65;;;2.17;;
55811;SDS011;41742;52.048;6.092;2023-01-01T16:47:51;8.35;;;2.85;;
55811;SDS011;41742;52.048;6.092;2023-01-01T16:50:18;10.40;;;2.25;;
55811;SDS011;41742;52.048;6.092;2023-01-01T16:52:44;6.00;;;2.03;;
55811;SDS011;41742;52.048;6.092;2023-01-01T16:55:09;14.13;;;1.90;;
55811;SDS011;41742;52.048;6.092;2023-01-01T16:57:35;11.95;;;2.95;;
55811;SDS011;41742;52.048;6.092;2023-01-01T17:00:01;9.40;;;2.78;;
55811;SDS011;41742;52.048;6.092;2023-01-01T17:02:27;10.77;;;2.35;;
55811;SDS011;41742;52.048;6.092;2023-01-01T17:04:54;7.25;;;1.95;;
55811;SDS011;41742;52.048;6.092;2023-01-01T17:07:19;9.50;;;2.95;;
55811;SDS011;41742;52.048;6.092;2023-01-01T17:09:45;11.63;;;3.03;;
55811;SDS011;41742;52.048;6.092;2023-01-01T17:12:11;6.43;;;1.88;;